sensor_id;sensor_type;location;lat;lon;timestamp;P1;durP1;ratioP1;P2;durP2;ratioP2
73072;SDS011;61260;51.090;-1.786;2022-09-13T00:00:33;2.90;;;1.30;;
73072;SDS011;61260;51.090;-1.786;2022-09-13T00:03:03;2.60;;;1.40;;
73072;SDS011;61260;51.090;-1.786;2022-09-13T00:05:33;2.10;;;1.30;;
73072;SDS011;61260;51.090;-1.786;2022-09-13T00:08:04;3.00;;;1.60;;
73072;SDS011;61260;51.090;-1.786;2022-09-13T00:10:35;2.80;;;1.10;;
73072;SDS011;61260;51.090;-1.786;2022-09-13T00:13:07;2.60;;;1.30;;
73072;SDS011;61260;51.090;-1.786;2022-09-13T00:15:42;3.00;;;1.50;;
73072;SDS011;61260;51.090;-1.786;2022-09-13T00:18:14;2.80;;;1.50;;
73072;SDS011;61260;51.090;-1.786;2022-09-13T00:20:45;4.10;;;1.70;;
73072;SDS011;61260;51.090;-1.786;2022-09-13T00:23:15;2.40;;;1.30;;
73072;SDS011;61260;51.090;-1.786;2022-09-13T00:25:45;2.10;;;1.30;;
73072;SDS011;61260;51.090;-1.786;2022-09-13T00:28:15;2.00;;;1.40;;
73072;SDS011;61260;51.090;-1.786;2022-09-13T00:30:44;2.90;;;1.30;;
73072;SDS011;61260;51.090;-1.786;2022-09-13T00:33:14;2.10;;;1.40;;
73072;SDS011;61260;51.090;-1.786;2022-09-13T00:35:44;1.90;;;1.40;;
73072;SDS011;61260;51.090;-1.786;2022-09-13T00:38:14;2.90;;;1.70;;
73072;SDS011;61260;51.090;-1.786;2022-09-13T00:40:52;3.40;;;1.60;;
73072;SDS011;61260;51.090;-1.786;2022-09-13T00:46:10;4.10;;;1.60;;
73072;SDS011;61260;51.090;-1.786;2022-09-13T00:48:44;1.70;;;1.50;;
73072;SDS011;61260;51.090;-1.786;2022-09-13T00:51:17;3.80;;;1.70;;
73072;SDS011;61260;51.090;-1.786;2022-09-13T00:53:47;2.00;;;1.70;;
73072;SDS011;61260;51.090;-1.786;2022-09-13T00:56:21;2.90;;;1.90;;
73072;SDS011;61260;51.090;-1.786;2022-09-13T00:58:56;2.50;;;1.70;;
73072;SDS011;61260;51.090;-1.786;2022-09-13T01:01:30;6.20;;;1.90;;
73072;SDS011;61260;51.090;-1.786;2022-09-13T01:04:05;2.50;;;1.60;;
73072;SDS011;61260;51.090;-1.786;2022-09-13T01:06:35;3.00;;;1.40;;
73072;SDS011;61260;51.090;-1.786;2022-09-13T01:11:39;2.70;;;1.40;;
73072;SDS011;61260;51.090;-1.786;2022-09-13T01:14:17;3.10;;;1.40;;
73072;SDS011;61260;51.090;-1.786;2022-09-13T01:16:49;4.30;;;1.70;;
73072;SDS011;61260;51.090;-1.786;2022-09-13T01:19:19;2.60;;;1.80;;
73072;SDS011;61260;51.090;-1.786;2022-09-13T01:24:56;2.80;;;1.50;;
73072;SDS011;61260;51.090;-1.786;2022-09-13T01:31:00;1.90;;;1.60;;
73072;SDS011;61260;51.090;-1.786;2022-09-13T01:33:47;3.50;;;1.70;;
73072;SDS011;61260;51.090;-1.786;2022-09-13T01:39:24;2.50;;;1.70;;
73072;SDS011;61260;51.090;-1.786;2022-09-13T01:42:10;3.70;;;1.70;;
73072;SDS011;61260;51.090;-1.786;2022-09-13T01:44:54;2.50;;;1.50;;
73072;SDS011;61260;51.090;-1.786;2022-09-13T01:47:31;3.70;;;2.00;;
73072;SDS011;61260;51.090;-1.786;2022-09-13T01:50:11;3.90;;;1.60;;
73072;SDS011;61260;51.090;-1.786;2022-09-13T01:52:49;3.70;;;1.60;;
73072;SDS011;61260;51.090;-1.786;2022-09-13T01:55:27;3.20;;;1.60;;
73072;SDS011;61260;51.090;-1.786;2022-09-13T01:58:04;2.80;;;1.60;;
73072;SDS011;61260;51.090;-1.786;2022-09-13T02:00:45;3.20;;;2.00;;
73072;SDS011;61260;51.090;-1.786;2022-09-13T02:03:21;4.30;;;2.00;;
73072;SDS011;61260;51.090;-1.786;2022-09-13T02:06:00;3.90;;;2.10;;
73072;SDS011;61260;51.090;-1.786;2022-09-13T02:08:36;2.90;;;2.10;;
73072;SDS011;61260;51.090;-1.786;2022-09-13T02:11:09;4.30;;;2.20;;
73072;SDS011;61260;51.090;-1.786;2022-09-13T02:13:44;3.60;;;2.30;;
73072;SDS011;61260;51.090;-1.786;2022-09-13T02:16:18;5.80;;;2.50;;
73072;SDS011;61260;51.090;-1.786;2022-09-13T02:18:54;3.60;;;2.00;;
73072;SDS011;61260;51.090;-1.786;2022-09-13T02:21:27;4.70;;;2.60;;
73072;SDS011;61260;51.090;-1.786;2022-09-13T02:24:01;5.80;;;2.70;;
73072;SDS011;61260;51.090;-1.786;2022-09-13T02:26:33;3.70;;;2.80;;
73072;SDS011;61260;51.090;-1.786;2022-09-13T02:29:07;4.40;;;2.70;;
73072;SDS011;61260;51.090;-1.786;2022-09-13T02:31:43;6.90;;;3.10;;
73072;SDS011;61260;51.090;-1.786;2022-09-13T02:34:18;4.70;;;2.70;;
73072;SDS011;61260;51.090;-1.786;2022-09-13T02:36:53;5.30;;;3.10;;
73072;SDS011;61260;51.090;-1.786;2022-09-13T02:39:25;6.30;;;3.70;;
73072;SDS011;61260;51.090;-1.786;2022-09-13T02:42:01;7.60;;;3.50;;
73072;SDS011;61260;51.090;-1.786;2022-09-13T02:44:36;5.20;;;2.90;;
73072;SDS011;61260;51.090;-1.786;2022-09-13T02:47:10;5.90;;;3.40;;
73072;SDS011;61260;51.090;-1.786;2022-09-13T02:49:51;5.10;;;3.10;;
73072;SDS011;61260;51.090;-1.786;2022-09-13T02:52:31;6.30;;;3.20;;
73072;SDS011;61260;51.090;-1.786;2022-09-13T02:55:12;6.50;;;3.80;;
73072;SDS011;61260;51.090;-1.786;2022-09-13T02:57:58;5.90;;;3.70;;
73072;SDS011;61260;51.090;-1.786;2022-09-13T03:00:32;6.20;;;4.10;;
73072;SDS011;61260;51.090;-1.786;2022-09-13T03:03:03;6.60;;;4.40;;
73072;SDS011;61260;51.090;-1.786;2022-09-13T03:05:36;10.00;;;5.10;;
73072;SDS011;61260;51.090;-1.786;2022-09-13T03:08:05;8.10;;;5.50;;
73072;SDS011;61260;51.090;-1.786;2022-09-13T03:10:42;8.40;;;5.50;;
73072;SDS011;61260;51.090;-1.786;2022-09-13T03:13:22;9.80;;;5.80;;
73072;SDS011;61260;51.090;-1.786;2022-09-13T03:16:17;10.40;;;5.90;;
73072;SDS011;61260;51.090;-1.786;2022-09-13T03:19:05;9.90;;;6.30;;
73072;SDS011;61260;51.090;-1.786;2022-09-13T03:21:48;10.10;;;6.00;;
73072;SDS011;61260;51.090;-1.786;2022-09-13T03:24:30;8.30;;;5.80;;
73072;SDS011;61260;51.090;-1.786;2022-09-13T03:27:14;10.00;;;6.60;;
73072;SDS011;61260;51.090;-1.786;2022-09-13T03:29:52;9.90;;;5.90;;
73072;SDS011;61260;51.090;-1.786;2022-09-13T03:32:31;9.50;;;5.80;;
73072;SDS011;61260;51.090;-1.786;2022-09-13T03:35:12;10.90;;;6.30;;
73072;SDS011;61260;51.090;-1.786;2022-09-13T03:37:52;10.10;;;6.10;;
73072;SDS011;61260;51.090;-1.786;2022-09-13T03:40:32;10.80;;;6.40;;
73072;SDS011;61260;51.090;-1.786;2022-09-13T03:43:09;9.60;;;6.00;;
73072;SDS011;61260;51.090;-1.786;2022-09-13T03:45:43;9.30;;;6.30;;
73072;SDS011;61260;51.090;-1.786;2022-09-13T03:48:16;9.70;;;6.30;;
73072;SDS011;61260;51.090;-1.786;2022-09-13T03:50:48;13.60;;;6.90;;
73072;SDS011;61260;51.090;-1.786;2022-09-13T03:53:20;12.00;;;7.50;;
73072;SDS011;61260;51.090;-1.786;2022-09-13T03:55:52;10.50;;;6.20;;
73072;SDS011;61260;51.090;-1.786;2022-09-13T03:58:24;11.60;;;7.10;;
73072;SDS011;61260;51.090;-1.786;2022-09-13T04:00:54;10.20;;;6.40;;
73072;SDS011;61260;51.090;-1.786;2022-09-13T04:03:23;9.00;;;5.70;;
73072;SDS011;61260;51.090;-1.786;2022-09-13T04:05:53;13.00;;;6.60;;
73072;SDS011;61260;51.090;-1.786;2022-09-13T04:08:23;9.30;;;6.00;;
73072;SDS011;61260;51.090;-1.786;2022-09-13T04:10:52;8.80;;;5.20;;
73072;SDS011;61260;51.090;-1.786;2022-09-13T04:13:22;11.30;;;5.80;;
73072;SDS011;61260;51.090;-1.786;2022-09-13T04:15:52;10.40;;;5.70;;
73072;SDS011;61260;51.090;-1.786;2022-09-13T04:18:22;10.50;;;6.00;;
73072;SDS011;61260;51.090;-1.786;2022-09-13T04:20:56;10.30;;;6.30;;
73072;SDS011;61260;51.090;-1.786;2022-09-13T04:23:27;12.30;;;6.40;;
73072;SDS011;61260;51.090;-1.786;2022-09-13T04:26:01;11.50;;;6.50;;
73072;SDS011;61260;51.090;-1.786;2022-09-13T04:28:31;10.90;;;6.80;;
73072;SDS011;61260;51.090;-1.786;2022-09-13T04:31:01;9.40;;;5.50;;
73072;SDS011;61260;51.090;-1.786;2022-09-13T04:33:31;9.70;;;5.70;;
73072;SDS011;61260;51.090;-1.786;2022-09-13T04:36:02;7.80;;;4.90;;
73072;SDS011;61260;51.090;-1.786;2022-09-13T04:38:32;8.40;;;4.80;;
73072;SDS011;61260;51.090;-1.786;2022-09-13T04:41:03;8.00;;;5.30;;
73072;SDS011;61260;51.090;-1.786;2022-09-13T04:43:33;9.30;;;5.50;;
73072;SDS011;61260;51.090;-1.786;2022-09-13T04:46:02;7.10;;;4.80;;
73072;SDS011;61260;51.090;-1.786;2022-09-13T04:48:32;7.90;;;4.50;;
73072;SDS011;61260;51.090;-1.786;2022-09-13T04:51:02;7.30;;;4.30;;
73072;SDS011;61260;51.090;-1.786;2022-09-13T04:53:32;5.50;;;3.50;;
73072;SDS011;61260;51.090;-1.786;2022-09-13T04:56:03;5.60;;;3.80;;
73072;SDS011;61260;51.090;-1.786;2022-09-13T04:58:35;7.00;;;3.60;;
73072;SDS011;61260;51.090;-1.786;2022-09-13T05:01:05;5.00;;;3.10;;
73072;SDS011;61260;51.090;-1.786;2022-09-13T05:03:36;4.40;;;3.00;;
73072;SDS011;61260;51.090;-1.786;2022-09-13T05:06:07;4.70;;;2.50;;
73072;SDS011;61260;51.090;-1.786;2022-09-13T05:08:39;3.20;;;2.00;;
73072;SDS011;61260;51.090;-1.786;2022-09-13T05:11:09;2.20;;;1.40;;
73072;SDS011;61260;51.090;-1.786;2022-09-13T05:13:39;2.40;;;1.50;;
73072;SDS011;61260;51.090;-1.786;2022-09-13T05:16:08;1.60;;;1.30;;
73072;SDS011;61260;51.090;-1.786;2022-09-13T05:18:38;1.60;;;0.90;;
73072;SDS011;61260;51.090;-1.786;2022-09-13T05:21:08;0.70;;;0.60;;
73072;SDS011;61260;51.090;-1.786;2022-09-13T05:23:38;0.70;;;0.60;;
73072;SDS011;61260;51.090;-1.786;2022-09-13T05:26:08;1.40;;;0.70;;
73072;SDS011;61260;51.090;-1.786;2022-09-13T05:28:37;1.60;;;0.50;;
73072;SDS011;61260;51.090;-1.786;2022-09-13T05:31:07;1.50;;;0.50;;
73072;SDS011;61260;51.090;-1.786;2022-09-13T05:33:40;0.90;;;0.40;;
73072;SDS011;61260;51.090;-1.786;2022-09-13T05:36:10;0.80;;;0.40;;
73072;SDS011;61260;51.090;-1.786;2022-09-13T05:38:40;0.70;;;0.50;;
73072;SDS011;61260;51.090;-1.786;2022-09-13T05:41:10;1.20;;;0.40;;
73072;SDS011;61260;51.090;-1.786;2022-09-13T05:43:40;1.20;;;0.50;;
73072;SDS011;61260;51.090;-1.786;2022-09-13T05:46:10;1.20;;;0.50;;
73072;SDS011;61260;51.090;-1.786;2022-09-13T05:48:41;0.70;;;0.60;;
73072;SDS011;61260;51.090;-1.786;2022-09-13T05:51:11;0.90;;;0.60;;
73072;SDS011;61260;51.090;-1.786;2022-09-13T05:53:43;1.00;;;0.40;;
73072;SDS011;61260;51.090;-1.786;2022-09-13T05:56:15;1.10;;;0.50;;
73072;SDS011;61260;51.090;-1.786;2022-09-13T05:58:47;2.00;;;0.60;;
73072;SDS011;61260;51.090;-1.786;2022-09-13T06:01:18;1.60;;;0.70;;
73072;SDS011;61260;51.090;-1.786;2022-09-13T06:06:19;1.40;;;0.70;;
73072;SDS011;61260;51.090;-1.786;2022-09-13T06:08:52;0.80;;;0.60;;
73072;SDS011;61260;51.090;-1.786;2022-09-13T06:11:22;0.80;;;0.60;;
73072;SDS011;61260;51.090;-1.786;2022-09-13T06:13:52;1.10;;;0.60;;
73072;SDS011;61260;51.090;-1.786;2022-09-13T06:16:22;1.80;;;0.60;;
73072;SDS011;61260;51.090;-1.786;2022-09-13T06:18:52;1.50;;;0.70;;
73072;SDS011;61260;51.090;-1.786;2022-09-13T06:21:22;1.40;;;0.70;;
73072;SDS011;61260;51.090;-1.786;2022-09-13T06:23:52;2.20;;;0.80;;
73072;SDS011;61260;51.090;-1.786;2022-09-13T06:26:22;1.50;;;0.70;;
73072;SDS011;61260;51.090;-1.786;2022-09-13T06:28:54;1.40;;;1.00;;
73072;SDS011;61260;51.090;-1.786;2022-09-13T06:31:25;3.40;;;1.10;;
73072;SDS011;61260;51.090;-1.786;2022-09-13T06:33:56;2.10;;;0.80;;
73072;SDS011;61260;51.090;-1.786;2022-09-13T06:38:56;2.60;;;0.90;;
73072;SDS011;61260;51.090;-1.786;2022-09-13T06:41:27;2.00;;;0.80;;
73072;SDS011;61260;51.090;-1.786;2022-09-13T06:44:05;0.80;;;0.80;;
73072;SDS011;61260;51.090;-1.786;2022-09-13T06:46:36;1.80;;;0.80;;
73072;SDS011;61260;51.090;-1.786;2022-09-13T06:49:06;2.20;;;0.90;;
73072;SDS011;61260;51.090;-1.786;2022-09-13T06:51:37;1.70;;;0.90;;
73072;SDS011;61260;51.090;-1.786;2022-09-13T06:54:07;3.70;;;1.40;;
73072;SDS011;61260;51.090;-1.786;2022-09-13T06:56:37;1.60;;;0.90;;
73072;SDS011;61260;51.090;-1.786;2022-09-13T06:59:08;2.90;;;1.00;;
73072;SDS011;61260;51.090;-1.786;2022-09-13T07:01:38;1.90;;;0.80;;
73072;SDS011;61260;51.090;-1.786;2022-09-13T07:04:11;3.90;;;1.10;;
73072;SDS011;61260;51.090;-1.786;2022-09-13T07:06:42;4.70;;;1.20;;
73072;SDS011;61260;51.090;-1.786;2022-09-13T07:09:14;2.40;;;1.10;;
73072;SDS011;61260;51.090;-1.786;2022-09-13T07:14:17;1.40;;;0.70;;
73072;SDS011;61260;51.090;-1.786;2022-09-13T07:16:48;1.80;;;1.10;;
73072;SDS011;61260;51.090;-1.786;2022-09-13T07:19:19;1.80;;;0.80;;
73072;SDS011;61260;51.090;-1.786;2022-09-13T07:21:52;4.10;;;1.00;;
73072;SDS011;61260;51.090;-1.786;2022-09-13T07:24:22;2.90;;;0.80;;
73072;SDS011;61260;51.090;-1.786;2022-09-13T07:26:53;2.30;;;1.10;;
73072;SDS011;61260;51.090;-1.786;2022-09-13T07:29:23;2.10;;;1.20;;
73072;SDS011;61260;51.090;-1.786;2022-09-13T07:31:53;3.30;;;1.20;;
73072;SDS011;61260;51.090;-1.786;2022-09-13T07:34:24;3.30;;;1.60;;
73072;SDS011;61260;51.090;-1.786;2022-09-13T07:36:54;5.70;;;1.70;;
73072;SDS011;61260;51.090;-1.786;2022-09-13T07:39:24;3.10;;;1.50;;
73072;SDS011;61260;51.090;-1.786;2022-09-13T07:41:54;2.70;;;1.20;;
73072;SDS011;61260;51.090;-1.786;2022-09-13T07:44:23;2.70;;;1.30;;
73072;SDS011;61260;51.090;-1.786;2022-09-13T07:46:54;6.10;;;1.90;;
73072;SDS011;61260;51.090;-1.786;2022-09-13T07:49:26;2.70;;;1.20;;
73072;SDS011;61260;51.090;-1.786;2022-09-13T07:51:55;2.40;;;1.30;;
73072;SDS011;61260;51.090;-1.786;2022-09-13T07:54:27;2.50;;;1.40;;
73072;SDS011;61260;51.090;-1.786;2022-09-13T07:56:56;3.00;;;1.30;;
73072;SDS011;61260;51.090;-1.786;2022-09-13T07:59:26;3.50;;;1.40;;
73072;SDS011;61260;51.090;-1.786;2022-09-13T08:01:56;2.70;;;1.50;;
73072;SDS011;61260;51.090;-1.786;2022-09-13T08:04:26;3.30;;;1.40;;
73072;SDS011;61260;51.090;-1.786;2022-09-13T08:06:55;4.40;;;2.00;;
73072;SDS011;61260;51.090;-1.786;2022-09-13T08:09:25;3.20;;;1.40;;
73072;SDS011;61260;51.090;-1.786;2022-09-13T08:11:54;4.90;;;1.60;;
73072;SDS011;61260;51.090;-1.786;2022-09-13T08:14:24;3.30;;;1.70;;
73072;SDS011;61260;51.090;-1.786;2022-09-13T08:16:55;4.20;;;1.70;;
73072;SDS011;61260;51.090;-1.786;2022-09-13T08:19:25;2.90;;;1.40;;
73072;SDS011;61260;51.090;-1.786;2022-09-13T08:21:55;3.90;;;1.90;;
73072;SDS011;61260;51.090;-1.786;2022-09-13T08:24:26;4.10;;;1.70;;
73072;SDS011;61260;51.090;-1.786;2022-09-13T08:26:56;4.30;;;1.60;;
73072;SDS011;61260;51.090;-1.786;2022-09-13T08:29:25;3.00;;;1.80;;
73072;SDS011;61260;51.090;-1.786;2022-09-13T08:31:55;3.10;;;1.70;;
73072;SDS011;61260;51.090;-1.786;2022-09-13T08:34:25;4.40;;;2.20;;
73072;SDS011;61260;51.090;-1.786;2022-09-13T08:36:55;4.40;;;2.40;;
73072;SDS011;61260;51.090;-1.786;2022-09-13T08:39:25;4.30;;;1.70;;
73072;SDS011;61260;51.090;-1.786;2022-09-13T08:42:05;4.20;;;1.90;;
73072;SDS011;61260;51.090;-1.786;2022-09-13T08:44:50;3.60;;;2.20;;
73072;SDS011;61260;51.090;-1.786;2022-09-13T08:47:37;3.80;;;2.20;;
73072;SDS011;61260;51.090;-1.786;2022-09-13T08:50:14;3.70;;;1.80;;
73072;SDS011;61260;51.090;-1.786;2022-09-13T08:52:56;3.60;;;2.50;;
73072;SDS011;61260;51.090;-1.786;2022-09-13T08:55:39;5.10;;;2.10;;
73072;SDS011;61260;51.090;-1.786;2022-09-13T08:58:24;3.50;;;2.10;;
73072;SDS011;61260;51.090;-1.786;2022-09-13T09:01:13;2.60;;;2.00;;
73072;SDS011;61260;51.090;-1.786;2022-09-13T09:03:53;5.30;;;2.60;;
73072;SDS011;61260;51.090;-1.786;2022-09-13T09:06:30;3.90;;;2.70;;
73072;SDS011;61260;51.090;-1.786;2022-09-13T09:09:01;3.60;;;2.40;;
73072;SDS011;61260;51.090;-1.786;2022-09-13T09:11:35;4.10;;;2.70;;
73072;SDS011;61260;51.090;-1.786;2022-09-13T09:14:16;4.60;;;2.50;;
73072;SDS011;61260;51.090;-1.786;2022-09-13T09:16:53;4.80;;;2.50;;
73072;SDS011;61260;51.090;-1.786;2022-09-13T09:19:28;4.60;;;3.20;;
73072;SDS011;61260;51.090;-1.786;2022-09-13T09:22:02;6.90;;;2.70;;
73072;SDS011;61260;51.090;-1.786;2022-09-13T09:24:38;4.50;;;3.10;;
73072;SDS011;61260;51.090;-1.786;2022-09-13T09:27:13;7.00;;;3.30;;
73072;SDS011;61260;51.090;-1.786;2022-09-13T09:29:44;5.30;;;3.30;;
73072;SDS011;61260;51.090;-1.786;2022-09-13T09:32:32;4.10;;;2.90;;
73072;SDS011;61260;51.090;-1.786;2022-09-13T09:35:17;4.80;;;2.90;;
73072;SDS011;61260;51.090;-1.786;2022-09-13T09:38:04;3.70;;;2.40;;
73072;SDS011;61260;51.090;-1.786;2022-09-13T09:40:46;4.50;;;3.00;;
73072;SDS011;61260;51.090;-1.786;2022-09-13T09:43:18;3.30;;;2.80;;
73072;SDS011;61260;51.090;-1.786;2022-09-13T09:46:01;4.50;;;2.70;;
73072;SDS011;61260;51.090;-1.786;2022-09-13T09:48:36;7.90;;;2.80;;
73072;SDS011;61260;51.090;-1.786;2022-09-13T09:51:10;5.70;;;2.60;;
73072;SDS011;61260;51.090;-1.786;2022-09-13T09:53:43;3.70;;;2.50;;
73072;SDS011;61260;51.090;-1.786;2022-09-13T09:56:19;5.30;;;3.20;;
73072;SDS011;61260;51.090;-1.786;2022-09-13T09:58:50;4.50;;;3.00;;
73072;SDS011;61260;51.090;-1.786;2022-09-13T10:01:25;4.30;;;3.10;;
73072;SDS011;61260;51.090;-1.786;2022-09-13T10:04:14;4.70;;;3.00;;
73072;SDS011;61260;51.090;-1.786;2022-09-13T10:06:48;8.20;;;3.50;;
73072;SDS011;61260;51.090;-1.786;2022-09-13T10:09:34;5.80;;;3.30;;
73072;SDS011;61260;51.090;-1.786;2022-09-13T10:12:05;4.40;;;3.20;;
73072;SDS011;61260;51.090;-1.786;2022-09-13T10:14:37;4.90;;;3.30;;
73072;SDS011;61260;51.090;-1.786;2022-09-13T10:17:17;4.80;;;2.80;;
73072;SDS011;61260;51.090;-1.786;2022-09-13T10:19:52;5.70;;;3.10;;
73072;SDS011;61260;51.090;-1.786;2022-09-13T10:22:25;5.10;;;3.00;;
73072;SDS011;61260;51.090;-1.786;2022-09-13T10:25:06;5.50;;;3.70;;
73072;SDS011;61260;51.090;-1.786;2022-09-13T10:27:46;3.70;;;2.60;;
73072;SDS011;61260;51.090;-1.786;2022-09-13T10:30:25;4.10;;;3.10;;
73072;SDS011;61260;51.090;-1.786;2022-09-13T10:33:04;5.20;;;3.10;;
73072;SDS011;61260;51.090;-1.786;2022-09-13T10:35:47;3.90;;;2.60;;
73072;SDS011;61260;51.090;-1.786;2022-09-13T10:38:22;6.30;;;3.00;;
73072;SDS011;61260;51.090;-1.786;2022-09-13T10:40:56;4.30;;;2.60;;
73072;SDS011;61260;51.090;-1.786;2022-09-13T10:43:29;4.30;;;2.40;;
73072;SDS011;61260;51.090;-1.786;2022-09-13T10:46:01;3.70;;;2.70;;
73072;SDS011;61260;51.090;-1.786;2022-09-13T10:48:44;5.10;;;3.00;;
73072;SDS011;61260;51.090;-1.786;2022-09-13T10:51:27;4.20;;;2.60;;
73072;SDS011;61260;51.090;-1.786;2022-09-13T10:56:51;3.40;;;2.60;;
73072;SDS011;61260;51.090;-1.786;2022-09-13T10:59:21;3.60;;;2.50;;
73072;SDS011;61260;51.090;-1.786;2022-09-13T11:01:57;3.40;;;2.40;;
73072;SDS011;61260;51.090;-1.786;2022-09-13T11:04:59;3.70;;;2.30;;
73072;SDS011;61260;51.090;-1.786;2022-09-13T11:07:52;4.60;;;2.40;;
73072;SDS011;61260;51.090;-1.786;2022-09-13T11:10:39;4.30;;;2.20;;
73072;SDS011;61260;51.090;-1.786;2022-09-13T11:13:23;3.30;;;2.00;;
73072;SDS011;61260;51.090;-1.786;2022-09-13T11:16:04;4.50;;;2.60;;
73072;SDS011;61260;51.090;-1.786;2022-09-13T11:18:50;4.70;;;2.30;;
73072;SDS011;61260;51.090;-1.786;2022-09-13T11:21:35;4.20;;;2.40;;
73072;SDS011;61260;51.090;-1.786;2022-09-13T11:27:16;5.90;;;2.40;;
73072;SDS011;61260;51.090;-1.786;2022-09-13T11:30:02;5.30;;;2.40;;
73072;SDS011;61260;51.090;-1.786;2022-09-13T11:32:46;4.10;;;2.10;;
73072;SDS011;61260;51.090;-1.786;2022-09-13T11:35:41;3.60;;;2.10;;
73072;SDS011;61260;51.090;-1.786;2022-09-13T11:38:24;3.90;;;1.60;;
73072;SDS011;61260;51.090;-1.786;2022-09-13T11:41:03;3.70;;;1.80;;
73072;SDS011;61260;51.090;-1.786;2022-09-13T11:47:06;4.20;;;1.70;;
73072;SDS011;61260;51.090;-1.786;2022-09-13T11:49:46;4.00;;;2.00;;
73072;SDS011;61260;51.090;-1.786;2022-09-13T11:52:29;3.50;;;1.70;;
73072;SDS011;61260;51.090;-1.786;2022-09-13T11:55:14;3.10;;;1.40;;
73072;SDS011;61260;51.090;-1.786;2022-09-13T11:57:48;3.80;;;1.60;;
73072;SDS011;61260;51.090;-1.786;2022-09-13T12:00:21;2.00;;;1.30;;
73072;SDS011;61260;51.090;-1.786;2022-09-13T12:03:01;2.80;;;1.40;;
73072;SDS011;61260;51.090;-1.786;2022-09-13T12:05:41;3.00;;;1.60;;
73072;SDS011;61260;51.090;-1.786;2022-09-13T12:08:17;2.10;;;1.40;;
73072;SDS011;61260;51.090;-1.786;2022-09-13T12:10:51;2.10;;;1.10;;
73072;SDS011;61260;51.090;-1.786;2022-09-13T12:13:24;1.60;;;1.30;;
73072;SDS011;61260;51.090;-1.786;2022-09-13T12:15:58;1.50;;;1.10;;
73072;SDS011;61260;51.090;-1.786;2022-09-13T12:18:33;1.70;;;1.20;;
73072;SDS011;61260;51.090;-1.786;2022-09-13T12:21:07;2.20;;;1.00;;
73072;SDS011;61260;51.090;-1.786;2022-09-13T12:23:41;2.50;;;1.20;;
73072;SDS011;61260;51.090;-1.786;2022-09-13T12:26:19;3.80;;;1.50;;
73072;SDS011;61260;51.090;-1.786;2022-09-13T12:28:53;2.70;;;1.20;;
73072;SDS011;61260;51.090;-1.786;2022-09-13T12:31:26;3.90;;;1.40;;
73072;SDS011;61260;51.090;-1.786;2022-09-13T12:33:58;2.90;;;1.40;;
73072;SDS011;61260;51.090;-1.786;2022-09-13T12:36:35;2.90;;;1.20;;
73072;SDS011;61260;51.090;-1.786;2022-09-13T12:45:09;2.10;;;1.30;;
73072;SDS011;61260;51.090;-1.786;2022-09-13T12:48:00;3.20;;;1.10;;
73072;SDS011;61260;51.090;-1.786;2022-09-13T12:54:01;2.60;;;1.40;;
73072;SDS011;61260;51.090;-1.786;2022-09-13T12:56:59;3.30;;;1.10;;
73072;SDS011;61260;51.090;-1.786;2022-09-13T13:05:00;2.60;;;1.30;;
73072;SDS011;61260;51.090;-1.786;2022-09-13T13:07:34;3.10;;;1.20;;
73072;SDS011;61260;51.090;-1.786;2022-09-13T13:12:53;2.20;;;1.20;;
73072;SDS011;61260;51.090;-1.786;2022-09-13T13:18:46;2.40;;;1.20;;
73072;SDS011;61260;51.090;-1.786;2022-09-13T13:33:20;2.60;;;1.70;;
73072;SDS011;61260;51.090;-1.786;2022-09-13T13:35:53;2.00;;;1.30;;
73072;SDS011;61260;51.090;-1.786;2022-09-13T13:38:42;5.30;;;1.80;;
73072;SDS011;61260;51.090;-1.786;2022-09-13T13:47:53;3.40;;;1.80;;
73072;SDS011;61260;51.090;-1.786;2022-09-13T13:53:38;3.50;;;1.70;;
73072;SDS011;61260;51.090;-1.786;2022-09-13T13:56:23;2.80;;;1.80;;
73072;SDS011;61260;51.090;-1.786;2022-09-13T13:58:58;3.50;;;2.10;;
73072;SDS011;61260;51.090;-1.786;2022-09-13T14:01:35;2.60;;;1.70;;
73072;SDS011;61260;51.090;-1.786;2022-09-13T14:04:29;3.60;;;1.70;;
73072;SDS011;61260;51.090;-1.786;2022-09-13T14:10:32;2.60;;;1.60;;
73072;SDS011;61260;51.090;-1.786;2022-09-13T14:13:17;3.50;;;2.10;;
73072;SDS011;61260;51.090;-1.786;2022-09-13T14:15:58;4.10;;;2.00;;
73072;SDS011;61260;51.090;-1.786;2022-09-13T14:21:27;3.50;;;2.20;;
73072;SDS011;61260;51.090;-1.786;2022-09-13T14:26:45;5.20;;;2.90;;
73072;SDS011;61260;51.090;-1.786;2022-09-13T14:31:47;4.50;;;2.80;;
73072;SDS011;61260;51.090;-1.786;2022-09-13T14:34:22;3.30;;;2.60;;
73072;SDS011;61260;51.090;-1.786;2022-09-13T14:36:55;4.50;;;2.70;;
73072;SDS011;61260;51.090;-1.786;2022-09-13T14:39:26;6.00;;;2.60;;
73072;SDS011;61260;51.090;-1.786;2022-09-13T14:42:01;4.50;;;2.40;;
73072;SDS011;61260;51.090;-1.786;2022-09-13T14:44:43;4.30;;;2.40;;
73072;SDS011;61260;51.090;-1.786;2022-09-13T14:47:14;3.50;;;2.40;;
73072;SDS011;61260;51.090;-1.786;2022-09-13T14:49:49;5.20;;;2.80;;
73072;SDS011;61260;51.090;-1.786;2022-09-13T14:52:27;4.30;;;2.20;;
73072;SDS011;61260;51.090;-1.786;2022-09-13T14:55:02;5.60;;;2.90;;
73072;SDS011;61260;51.090;-1.786;2022-09-13T14:57:36;5.30;;;2.50;;
73072;SDS011;61260;51.090;-1.786;2022-09-13T15:00:16;6.10;;;2.80;;
73072;SDS011;61260;51.090;-1.786;2022-09-13T15:02:49;4.80;;;2.50;;
73072;SDS011;61260;51.090;-1.786;2022-09-13T15:05:21;5.90;;;2.40;;
73072;SDS011;61260;51.090;-1.786;2022-09-13T15:07:52;5.00;;;2.40;;
73072;SDS011;61260;51.090;-1.786;2022-09-13T15:10:23;5.30;;;2.60;;
73072;SDS011;61260;51.090;-1.786;2022-09-13T15:13:05;3.90;;;2.50;;
73072;SDS011;61260;51.090;-1.786;2022-09-13T15:15:37;5.00;;;2.60;;
73072;SDS011;61260;51.090;-1.786;2022-09-13T15:18:22;4.70;;;2.60;;
73072;SDS011;61260;51.090;-1.786;2022-09-13T15:20:57;3.90;;;2.60;;
73072;SDS011;61260;51.090;-1.786;2022-09-13T15:23:29;5.20;;;3.10;;
73072;SDS011;61260;51.090;-1.786;2022-09-13T15:26:02;5.70;;;2.60;;
73072;SDS011;61260;51.090;-1.786;2022-09-13T15:28:50;6.00;;;2.60;;
73072;SDS011;61260;51.090;-1.786;2022-09-13T15:31:22;5.10;;;2.40;;
73072;SDS011;61260;51.090;-1.786;2022-09-13T15:36:47;5.10;;;2.90;;
73072;SDS011;61260;51.090;-1.786;2022-09-13T15:39:28;4.10;;;2.50;;
73072;SDS011;61260;51.090;-1.786;2022-09-13T15:42:08;6.20;;;2.90;;
73072;SDS011;61260;51.090;-1.786;2022-09-13T15:44:38;4.40;;;3.10;;
73072;SDS011;61260;51.090;-1.786;2022-09-13T15:47:09;7.80;;;3.70;;
73072;SDS011;61260;51.090;-1.786;2022-09-13T15:49:53;5.50;;;3.30;;
73072;SDS011;61260;51.090;-1.786;2022-09-13T15:52:24;6.20;;;3.40;;
73072;SDS011;61260;51.090;-1.786;2022-09-13T15:54:53;6.80;;;2.90;;
73072;SDS011;61260;51.090;-1.786;2022-09-13T15:57:24;4.20;;;2.80;;
73072;SDS011;61260;51.090;-1.786;2022-09-13T15:59:55;6.70;;;3.60;;
73072;SDS011;61260;51.090;-1.786;2022-09-13T16:02:26;4.90;;;2.90;;
73072;SDS011;61260;51.090;-1.786;2022-09-13T16:04:57;6.80;;;3.40;;
73072;SDS011;61260;51.090;-1.786;2022-09-13T16:07:27;6.00;;;3.90;;
73072;SDS011;61260;51.090;-1.786;2022-09-13T16:09:57;6.70;;;3.50;;
73072;SDS011;61260;51.090;-1.786;2022-09-13T16:12:28;4.00;;;2.90;;
73072;SDS011;61260;51.090;-1.786;2022-09-13T16:14:57;7.00;;;3.30;;
73072;SDS011;61260;51.090;-1.786;2022-09-13T16:17:27;6.30;;;3.00;;
73072;SDS011;61260;51.090;-1.786;2022-09-13T16:19:57;4.90;;;3.10;;
73072;SDS011;61260;51.090;-1.786;2022-09-13T16:22:26;5.20;;;3.50;;
73072;SDS011;61260;51.090;-1.786;2022-09-13T16:24:56;6.10;;;2.90;;
73072;SDS011;61260;51.090;-1.786;2022-09-13T16:27:26;5.50;;;3.00;;
73072;SDS011;61260;51.090;-1.786;2022-09-13T16:29:55;7.30;;;3.20;;
73072;SDS011;61260;51.090;-1.786;2022-09-13T16:32:25;5.10;;;3.20;;
73072;SDS011;61260;51.090;-1.786;2022-09-13T16:34:55;5.00;;;3.10;;
73072;SDS011;61260;51.090;-1.786;2022-09-13T16:37:25;5.70;;;3.30;;
73072;SDS011;61260;51.090;-1.786;2022-09-13T16:39:55;6.70;;;3.60;;
73072;SDS011;61260;51.090;-1.786;2022-09-13T16:42:25;8.90;;;3.60;;
73072;SDS011;61260;51.090;-1.786;2022-09-13T16:44:55;6.40;;;3.90;;